createdAt,value
2018-07-12T00:01:21.404Z,82.62
2018-07-12T00:03:48.066Z,82.73
2018-07-12T00:06:14.737Z,81.71
2018-07-12T00:08:41.205Z,82.42
2018-07-12T00:11:07.766Z,82.29
2018-07-12T00:13:34.540Z,82.97
2018-07-12T00:16:01.138Z,83.02
2018-07-12T00:18:27.795Z,82.76
2018-07-12T00:20:54.458Z,83.13
2018-07-12T00:23:21.053Z,82.61
2018-07-12T00:25:47.698Z,83.09
2018-07-12T00:28:14.326Z,83.01
2018-07-12T00:30:40.961Z,83.63
2018-07-12T00:33:07.877Z,83.02
2018-07-12T00:35:34.546Z,83.54
2018-07-12T00:38:01.192Z,83.87
2018-07-12T00:40:27.817Z,84.14
2018-07-12T00:42:54.596Z,84.24
2018-07-12T00:45:21.188Z,84.50
2018-07-12T00:47:47.721Z,84.20
2018-07-12T00:50:14.383Z,83.96
2018-07-12T00:52:41.007Z,83.01
2018-07-12T00:55:07.677Z,82.86
2018-07-12T00:57:34.277Z,82.26
2018-07-12T01:00:00.918Z,82.73
2018-07-12T01:02:27.553Z,82.02
2018-07-12T01:04:54.180Z,81.74
2018-07-12T01:07:20.870Z,83.82
2018-07-12T01:09:47.474Z,83.53
2018-07-12T01:12:14.092Z,83.26
2018-07-12T01:14:40.783Z,83.92
2018-07-12T01:17:07.505Z,84.47
2018-07-12T01:19:34.025Z,83.63
2018-07-12T01:22:00.646Z,83.17
2018-07-12T01:24:27.446Z,82.83
2018-07-12T01:26:54.124Z,82.67
2018-07-12T01:29:20.762Z,82.73
2018-07-12T01:31:47.443Z,82.70
2018-07-12T01:34:14.150Z,83.32
2018-07-12T01:36:40.779Z,83.88
2018-07-12T01:39:07.602Z,82.83
2018-07-12T01:41:34.265Z,82.94
2018-07-12T01:44:00.903Z,83.07
2018-07-12T01:46:27.572Z,83.10
2018-07-12T01:48:54.277Z,83.01
2018-07-12T01:51:20.906Z,82.52
2018-07-12T01:53:47.545Z,82.92
2018-07-12T01:56:14.222Z,83.60
2018-07-12T01:58:40.727Z,82.57
2018-07-12T02:01:07.354Z,83.16
2018-07-12T02:03:33.997Z,83.30
2018-07-12T02:06:00.634Z,82.78
2018-07-12T02:08:27.298Z,82.97
2018-07-12T02:10:53.918Z,83.15
2018-07-12T02:13:20.541Z,82.86
2018-07-12T02:15:47.183Z,82.63
2018-07-12T02:18:13.822Z,82.66
2018-07-12T02:20:40.464Z,83.33
2018-07-12T02:23:07.084Z,83.90
2018-07-12T02:25:33.729Z,84.49
2018-07-12T02:28:00.362Z,83.96
2018-07-12T02:30:26.998Z,84.10
2018-07-12T02:32:53.647Z,84.06
2018-07-12T02:35:20.237Z,84.63
2018-07-12T02:37:46.906Z,85.09
2018-07-12T02:40:13.550Z,85.70
2018-07-12T02:42:40.216Z,85.57
2018-07-12T02:45:06.820Z,85.80
2018-07-12T02:47:33.457Z,85.91
2018-07-12T02:50:00.133Z,85.63
2018-07-12T02:52:26.767Z,85.83
2018-07-12T02:54:53.471Z,87.23
2018-07-12T02:57:20.104Z,87.31
2018-07-12T02:59:46.742Z,86.53
2018-07-12T03:02:13.390Z,87.18
2018-07-12T03:04:40.017Z,88.16
2018-07-12T03:07:06.704Z,87.40
2018-07-12T03:09:33.401Z,86.26
2018-07-12T03:11:59.940Z,85.69
2018-07-12T03:14:26.573Z,84.79
2018-07-12T03:16:53.062Z,84.99
2018-07-12T03:19:19.746Z,85.14
2018-07-12T03:21:46.416Z,84.90
2018-07-12T03:24:13.122Z,85.71
2018-07-12T03:26:39.770Z,85.95
2018-07-12T03:29:06.530Z,85.75
2018-07-12T03:31:33.231Z,85.90
2018-07-12T03:33:59.865Z,86.37
2018-07-12T03:36:26.546Z,86.56
2018-07-12T03:38:53.242Z,86.58
2018-07-12T03:41:19.893Z,86.25
2018-07-12T03:43:46.526Z,86.01
2018-07-12T03:46:13.166Z,86.55
2018-07-12T03:48:39.797Z,86.51
2018-07-12T03:51:06.469Z,86.49
2018-07-12T03:53:33.103Z,86.57
2018-07-12T03:55:59.702Z,86.57
2018-07-12T03:58:26.278Z,86.37
2018-07-12T04:00:52.973Z,85.77
2018-07-12T04:03:19.623Z,85.14
2018-07-12T04:05:46.257Z,85.34
2018-07-12T04:08:12.889Z,85.29
2018-07-12T04:10:39.530Z,85.45
2018-07-12T04:13:06.196Z,84.87
2018-07-12T04:15:32.798Z,84.64
2018-07-12T04:17:59.443Z,83.85
2018-07-12T04:20:26.077Z,83.86
2018-07-12T04:22:52.562Z,83.49
2018-07-12T04:25:19.251Z,83.11
2018-07-12T04:27:45.892Z,83.28
2018-07-12T04:30:12.525Z,82.83
2018-07-12T04:32:39.300Z,83.04
2018-07-12T04:35:06.003Z,82.58
2018-07-12T04:37:32.629Z,82.11
2018-07-12T04:39:59.306Z,80.69
2018-07-12T04:42:26.019Z,81.05
2018-07-12T04:44:52.645Z,80.69
2018-07-12T04:47:19.202Z,80.41
2018-07-12T04:49:45.923Z,79.98
2018-07-12T04:52:12.558Z,80.13
2018-07-12T04:54:39.228Z,79.86
2018-07-12T04:57:05.943Z,79.67
2018-07-12T04:59:32.622Z,79.13
2018-07-12T05:01:59.351Z,78.26
2018-07-12T05:04:25.800Z,78.76
2018-07-12T05:06:52.676Z,78.46
2018-07-12T05:09:19.358Z,77.29
2018-07-12T05:11:45.826Z,77.58
2018-07-12T05:14:12.304Z,76.90
2018-07-12T05:16:38.787Z,77.45
2018-07-12T05:19:05.564Z,77.51
2018-07-12T05:21:32.195Z,76.44
2018-07-12T05:23:58.976Z,76.72
2018-07-12T05:26:25.586Z,76.60
2018-07-12T05:28:52.240Z,77.03
2018-07-12T05:31:18.898Z,77.65
2018-07-12T05:33:45.602Z,77.19
2018-07-12T05:36:25.896Z,77.15
2018-07-12T05:38:54.234Z,77.35
2018-07-12T05:41:22.410Z,77.82
2018-07-12T05:43:50.854Z,77.70
2018-07-12T05:46:19.059Z,77.45
2018-07-12T05:48:47.336Z,77.69
2018-07-12T05:51:15.853Z,78.14
2018-07-12T05:53:44.082Z,78.48
2018-07-12T05:56:12.349Z,78.80
2018-07-12T05:58:40.781Z,78.81
2018-07-12T06:02:20.880Z,76.42
2018-07-12T06:04:49.462Z,78.13
2018-07-12T06:07:23.171Z,78.72
2018-07-12T06:09:51.646Z,78.74
2018-07-12T06:12:20.440Z,77.70
2018-07-12T06:14:49.137Z,77.80
2018-07-12T06:17:17.553Z,77.79
2018-07-12T06:19:45.998Z,78.41
2018-07-12T06:22:13.981Z,77.66
2018-07-12T06:24:41.978Z,77.99
2018-07-12T06:27:09.849Z,77.74
2018-07-12T06:29:38.169Z,77.12
2018-07-12T06:32:06.763Z,76.53
2018-07-12T06:34:36.080Z,76.34
2018-07-12T06:37:04.669Z,76.44
2018-07-12T06:39:33.018Z,76.18
2018-07-12T06:42:01.323Z,76.48
2018-07-12T06:44:29.569Z,74.54
2018-07-12T06:46:57.805Z,74.65
2018-07-12T06:49:26.009Z,75.08
2018-07-12T06:51:54.122Z,75.67
2018-07-12T06:54:22.461Z,73.62
2018-07-12T06:56:50.726Z,73.91
2018-07-12T06:59:18.866Z,71.64
2018-07-12T07:01:47.086Z,72.51
2018-07-12T07:04:15.458Z,72.20
2018-07-12T07:06:43.872Z,71.46
2018-07-12T07:09:12.318Z,71.14
2018-07-12T07:11:40.918Z,71.44
2018-07-12T07:14:09.226Z,71.28
2018-07-12T07:16:37.658Z,70.19
2018-07-12T07:19:06.071Z,69.65
2018-07-12T07:21:34.553Z,69.18
2018-07-12T07:24:02.902Z,67.69
2018-07-12T07:26:31.066Z,67.07
2018-07-12T07:28:59.497Z,66.89
2018-07-12T07:31:27.830Z,67.48
2018-07-12T07:33:55.993Z,67.21
2018-07-12T07:36:24.414Z,67.60
2018-07-12T07:38:52.757Z,67.23
2018-07-12T07:41:21.133Z,66.42
2018-07-12T07:43:49.426Z,66.06
2018-07-12T07:46:17.790Z,67.19
2018-07-12T07:48:46.165Z,65.96
2018-07-12T07:51:14.655Z,66.70
2018-07-12T07:53:42.838Z,64.28
2018-07-12T07:56:11.238Z,64.77
2018-07-12T07:58:39.571Z,64.64
2018-07-12T08:01:08.049Z,65.07
2018-07-12T08:03:36.461Z,65.38
2018-07-12T08:06:04.815Z,65.91
2018-07-12T08:08:33.189Z,65.35
2018-07-12T08:11:01.398Z,64.83
2018-07-12T08:13:29.741Z,64.70
2018-07-12T08:15:57.674Z,64.18
2018-07-12T08:18:26.118Z,62.78
2018-07-12T08:20:54.453Z,63.66
2018-07-12T08:23:23.071Z,62.51
2018-07-12T08:25:51.655Z,62.06
2018-07-12T08:28:28.362Z,61.15
2018-07-12T08:30:56.629Z,62.32
2018-07-12T08:33:24.969Z,62.86
2018-07-12T08:35:53.123Z,63.18
2018-07-12T08:38:21.446Z,62.08
2018-07-12T08:40:49.788Z,61.53
2018-07-12T08:43:18.149Z,61.09
2018-07-12T08:45:46.245Z,62.31
2018-07-12T08:48:14.198Z,62.30
2018-07-12T08:50:42.255Z,60.33
2018-07-12T08:53:10.300Z,60.08
2018-07-12T08:55:38.199Z,61.59
2018-07-12T08:58:06.130Z,60.97
2018-07-12T09:00:34.173Z,60.49
2018-07-12T09:03:02.220Z,59.14
2018-07-12T09:05:30.134Z,59.63
2018-07-12T09:07:58.200Z,60.44
2018-07-12T09:10:26.352Z,58.14
2018-07-12T09:12:54.561Z,58.30
2018-07-12T09:15:22.898Z,57.27
2018-07-12T09:17:51.054Z,56.89
2018-07-12T09:20:19.071Z,58.28
2018-07-12T09:22:47.047Z,57.39
2018-07-12T09:25:14.958Z,58.63
2018-07-12T09:27:42.854Z,57.93
2018-07-12T09:30:10.866Z,57.90
2018-07-12T09:32:38.794Z,55.47
2018-07-12T09:35:06.738Z,59.45
2018-07-12T09:37:34.670Z,55.45
2018-07-12T09:40:02.684Z,55.15
2018-07-12T09:42:30.617Z,56.02
2018-07-12T09:44:58.593Z,55.16
2018-07-12T09:47:26.548Z,54.41
2018-07-12T09:49:54.482Z,55.85
2018-07-12T09:52:33.894Z,51.22
2018-07-12T09:55:02.224Z,58.02
2018-07-12T09:57:41.866Z,52.44
2018-07-12T10:00:09.674Z,56.47
2018-07-12T10:02:43.172Z,51.73
2018-07-12T10:06:14.516Z,52.37
2018-07-12T10:08:47.901Z,51.23
2018-07-12T10:11:21.631Z,53.41
2018-07-12T10:13:55.758Z,53.77
2018-07-12T10:16:29.515Z,51.90
2018-07-12T10:18:58.207Z,53.83
2018-07-12T10:21:26.196Z,56.98
2018-07-12T10:23:54.113Z,51.74
2018-07-12T10:26:22.006Z,54.54
2018-07-12T10:28:49.970Z,52.12
2018-07-12T10:31:17.938Z,54.74
2018-07-12T10:33:45.847Z,56.72
2018-07-12T10:36:13.731Z,49.75
2018-07-12T10:38:41.613Z,48.74
2018-07-12T10:41:09.509Z,51.28
2018-07-12T10:43:37.444Z,51.02
2018-07-12T10:46:05.697Z,57.30
2018-07-12T10:48:33.601Z,49.86
2018-07-12T10:51:01.543Z,50.99
2018-07-12T10:53:29.516Z,54.72
2018-07-12T10:55:57.415Z,50.41
2018-07-12T10:58:25.307Z,49.86
2018-07-12T11:00:53.218Z,49.97
2018-07-12T11:03:21.122Z,50.71
2018-07-12T11:05:49.080Z,51.31
2018-07-12T11:08:17.011Z,55.72
2018-07-12T11:10:44.893Z,54.35
2018-07-12T11:13:18.086Z,52.55
2018-07-12T11:15:46.640Z,50.37
2018-07-12T11:18:14.586Z,50.66
2018-07-12T11:20:42.665Z,50.74
2018-07-12T11:23:10.546Z,47.73
2018-07-12T11:25:38.415Z,49.42
2018-07-12T11:28:06.413Z,50.04
2018-07-12T11:30:34.392Z,52.03
2018-07-12T11:33:12.198Z,49.02
2018-07-12T11:35:40.162Z,47.86
2018-07-12T11:38:08.047Z,48.14
2018-07-12T11:40:35.950Z,54.55
2018-07-12T11:43:03.925Z,47.68
2018-07-12T11:45:31.865Z,48.08
2018-07-12T11:47:59.746Z,49.36
2018-07-12T11:50:27.621Z,49.16
2018-07-12T11:52:55.592Z,48.43
2018-07-12T11:55:23.557Z,49.75
2018-07-12T11:57:51.569Z,53.44
2018-07-12T12:00:19.462Z,48.17
2018-07-12T12:02:47.475Z,46.75
2018-07-12T12:05:15.377Z,48.03
2018-07-12T12:07:43.293Z,47.88
2018-07-12T12:10:11.246Z,47.02
2018-07-12T12:12:39.166Z,47.04
2018-07-12T12:15:07.073Z,52.61
2018-07-12T12:17:34.973Z,46.43
2018-07-12T12:20:02.881Z,44.78
2018-07-12T12:22:30.795Z,55.50
2018-07-12T12:24:58.754Z,47.51
2018-07-12T12:27:26.681Z,47.30
2018-07-12T12:29:54.525Z,45.94
2018-07-12T12:32:22.465Z,47.93
2018-07-12T12:34:50.781Z,47.74
2018-07-12T12:37:19.053Z,55.31
2018-07-12T12:39:47.016Z,52.08
2018-07-12T12:42:15.498Z,54.99
2018-07-12T12:44:43.784Z,53.72
2018-07-12T12:47:12.191Z,48.10
2018-07-12T12:49:40.530Z,48.53
2018-07-12T12:52:08.708Z,48.40
2018-07-12T12:54:36.881Z,48.04
2018-07-12T12:57:05.158Z,49.04
2018-07-12T12:59:33.546Z,46.94
2018-07-12T13:02:01.916Z,48.03
2018-07-12T13:04:30.291Z,48.94
2018-07-12T13:06:58.810Z,49.11
2018-07-12T13:09:27.040Z,55.83
2018-07-12T13:11:55.425Z,53.76
2018-07-12T13:14:23.651Z,48.44
2018-07-12T13:16:52.073Z,47.61
2018-07-12T13:19:20.271Z,47.77
2018-07-12T13:21:48.678Z,52.62
2018-07-12T13:24:17.006Z,46.83
2018-07-12T13:26:45.387Z,48.74
2018-07-12T13:29:13.657Z,49.26
2018-07-12T13:31:42.189Z,48.53
2018-07-12T13:34:10.625Z,51.34
2018-07-12T13:36:38.930Z,48.26
2018-07-12T13:39:08.360Z,47.81
2018-07-12T13:41:36.826Z,54.72
2018-07-12T13:44:17.891Z,47.42
2018-07-12T13:46:47.176Z,47.86
2018-07-12T13:49:15.573Z,46.57
2018-07-12T13:51:44.705Z,47.74
2018-07-12T13:54:13.101Z,48.47
2018-07-12T13:56:41.420Z,47.68
2018-07-12T13:59:10.113Z,46.49
2018-07-12T14:01:38.452Z,52.31
2018-07-12T14:04:07.742Z,45.44
2018-07-12T14:06:36.190Z,48.20
2018-07-12T14:09:05.434Z,45.63
2018-07-12T14:11:33.916Z,45.66
2018-07-12T14:14:02.378Z,49.40
2018-07-12T14:16:30.657Z,47.06
2018-07-12T14:18:59.189Z,46.93
2018-07-12T14:21:27.617Z,47.19
2018-07-12T14:23:55.786Z,53.53
2018-07-12T14:26:24.107Z,53.08
2018-07-12T14:28:52.442Z,46.48
2018-07-12T14:31:20.817Z,46.26
2018-07-12T14:33:49.185Z,46.92
2018-07-12T14:36:17.587Z,46.88
2018-07-12T14:38:45.857Z,46.70
2018-07-12T14:41:14.215Z,46.98
2018-07-12T14:43:42.502Z,48.60
2018-07-12T14:46:10.630Z,46.36
2018-07-12T14:48:38.594Z,45.34
2018-07-12T14:51:06.595Z,48.36
2018-07-12T14:53:34.546Z,47.11
2018-07-12T14:56:02.488Z,51.88
2018-07-12T14:58:30.410Z,46.17
2018-07-12T15:00:58.331Z,46.64
2018-07-12T15:03:26.237Z,46.04
2018-07-12T15:05:54.149Z,50.61
2018-07-12T15:08:22.050Z,49.75
2018-07-12T15:10:49.969Z,47.28
2018-07-12T15:13:17.984Z,47.32
2018-07-12T15:15:45.965Z,46.52
2018-07-12T15:18:13.889Z,46.26
2018-07-12T15:20:41.920Z,47.30
2018-07-12T15:23:09.859Z,47.53
2018-07-12T15:25:37.760Z,46.50
2018-07-12T15:28:05.937Z,49.18
2018-07-12T15:30:33.697Z,45.43
2018-07-12T15:33:01.617Z,47.90
2018-07-12T15:35:29.548Z,44.06
2018-07-12T15:37:57.518Z,49.69
2018-07-12T15:40:25.422Z,45.56
2018-07-12T15:42:53.384Z,46.41
2018-07-12T15:45:21.269Z,44.95
2018-07-12T15:47:49.183Z,48.40
2018-07-12T15:50:21.814Z,50.71
2018-07-12T15:52:49.872Z,44.48
2018-07-12T15:55:17.816Z,46.20
2018-07-12T15:57:45.911Z,45.79
2018-07-12T16:00:13.837Z,45.39
2018-07-12T16:02:41.760Z,53.38
2018-07-12T16:05:09.753Z,49.82
2018-07-12T16:07:37.701Z,50.75
2018-07-12T16:10:05.669Z,45.61
2018-07-12T16:12:33.566Z,45.89
2018-07-12T16:15:01.444Z,46.90
2018-07-12T16:17:29.367Z,49.04
2018-07-12T16:19:57.830Z,51.48
2018-07-12T16:22:25.951Z,52.38
2018-07-12T16:24:53.882Z,46.06
2018-07-12T16:27:21.959Z,50.29
2018-07-12T16:29:49.920Z,45.01
2018-07-12T16:32:18.273Z,46.25
2018-07-12T16:34:46.705Z,50.11
2018-07-12T16:37:14.668Z,46.73
2018-07-12T16:39:42.957Z,47.24
2018-07-12T16:42:11.283Z,47.74
2018-07-12T16:44:39.622Z,48.05
2018-07-12T16:47:08.233Z,49.13
2018-07-12T16:49:36.469Z,47.85
2018-07-12T16:52:04.812Z,47.04
2018-07-12T16:54:33.243Z,46.93
2018-07-12T16:57:01.706Z,48.35
2018-07-12T16:59:30.095Z,48.51
2018-07-12T17:01:58.358Z,47.44
2018-07-12T17:04:26.633Z,47.84
2018-07-12T17:06:54.905Z,48.43
2018-07-12T17:09:23.283Z,49.52
2018-07-12T17:11:51.870Z,48.28
2018-07-12T17:14:20.056Z,48.87
2018-07-12T17:16:48.420Z,49.61
2018-07-12T17:19:16.802Z,50.23
2018-07-12T17:21:45.074Z,50.50
2018-07-12T17:24:13.350Z,51.23
2018-07-12T17:26:41.617Z,51.63
2018-07-12T17:29:09.893Z,51.12
2018-07-12T17:31:37.969Z,52.15
2018-07-12T17:34:06.146Z,52.64
2018-07-12T17:36:34.620Z,52.57
2018-07-12T17:39:03.114Z,52.45
2018-07-12T17:41:31.474Z,52.58
2018-07-12T17:43:59.754Z,53.58
2018-07-12T17:46:28.236Z,54.00
2018-07-12T17:48:56.300Z,53.47
2018-07-12T17:51:24.586Z,53.66
2018-07-12T17:53:52.854Z,54.72
2018-07-12T17:56:21.205Z,54.29
2018-07-12T17:58:49.564Z,54.91
2018-07-12T18:01:17.798Z,55.54
2018-07-12T18:03:46.066Z,56.29
2018-07-12T18:06:14.239Z,56.86
2018-07-12T18:08:42.526Z,57.11
2018-07-12T18:11:10.997Z,57.14
2018-07-12T18:13:39.152Z,57.63
2018-07-12T18:16:07.545Z,58.23
2018-07-12T18:18:35.722Z,57.48
2018-07-12T18:21:05.061Z,57.61
2018-07-12T18:23:33.400Z,57.55
2018-07-12T18:26:01.292Z,57.48
2018-07-12T18:28:29.183Z,58.08
2018-07-12T18:30:57.066Z,58.56
2018-07-12T18:33:24.958Z,58.55
2018-07-12T18:35:52.829Z,59.10
2018-07-12T18:38:20.712Z,58.86
2018-07-12T18:40:48.601Z,59.26
2018-07-12T18:43:16.692Z,59.05
2018-07-12T18:45:44.597Z,59.66
2018-07-12T18:48:13.533Z,59.87
2018-07-12T18:50:42.561Z,60.78
2018-07-12T18:53:10.857Z,61.08
2018-07-12T18:55:39.668Z,60.96
2018-07-12T18:58:07.669Z,61.68
2018-07-12T19:00:35.658Z,61.68
2018-07-12T19:03:03.550Z,61.80
2018-07-12T19:05:31.405Z,61.95
2018-07-12T19:07:59.300Z,62.67
2018-07-12T19:10:27.209Z,63.03
2018-07-12T19:12:55.178Z,63.33
2018-07-12T19:15:23.131Z,63.49
2018-07-12T19:17:51.022Z,63.52
2018-07-12T19:20:18.938Z,63.72
2018-07-12T19:22:46.898Z,63.34
2018-07-12T19:25:14.855Z,63.49
2018-07-12T19:27:42.748Z,63.26
2018-07-12T19:30:11.090Z,63.69
2018-07-12T19:32:39.469Z,64.77
2018-07-12T19:35:07.852Z,65.08
2018-07-12T19:37:36.122Z,66.05
2018-07-12T19:40:04.506Z,66.74
2018-07-12T19:42:32.895Z,66.93
2018-07-12T19:45:01.358Z,67.38
2018-07-12T19:47:29.745Z,67.92
2018-07-12T19:49:58.009Z,69.04
2018-07-12T19:52:26.396Z,69.04
2018-07-12T19:54:54.677Z,69.60
2018-07-12T19:57:22.945Z,69.18
2018-07-12T19:59:51.228Z,69.19
2018-07-12T20:02:19.489Z,69.55
2018-07-12T20:04:47.467Z,70.42
2018-07-12T20:07:15.733Z,70.22
2018-07-12T20:09:44.008Z,70.08
2018-07-12T20:12:12.156Z,69.59
2018-07-12T20:14:40.449Z,70.12
2018-07-12T20:17:08.741Z,69.73
2018-07-12T20:19:37.010Z,69.87
2018-07-12T20:22:05.393Z,70.04
2018-07-12T20:24:33.661Z,70.19
2018-07-12T20:27:02.041Z,69.96
2018-07-12T20:29:30.321Z,68.94
2018-07-12T20:31:58.793Z,69.36
2018-07-12T20:34:27.074Z,69.23
2018-07-12T20:36:55.459Z,69.02
2018-07-12T20:39:23.730Z,68.94
2018-07-12T20:41:52.217Z,69.08
2018-07-12T20:44:20.350Z,68.90
2018-07-12T20:46:48.653Z,69.25
2018-07-12T20:49:16.829Z,69.41
2018-07-12T20:51:45.217Z,69.30
2018-07-12T20:54:13.485Z,69.01
2018-07-12T20:56:41.868Z,69.78
2018-07-12T20:59:10.337Z,70.11
2018-07-12T21:01:38.626Z,70.67
2018-07-12T21:04:06.898Z,70.70
2018-07-12T21:06:35.070Z,71.38
2018-07-12T21:09:04.227Z,70.51
2018-07-12T21:11:32.633Z,70.89
2018-07-12T21:14:00.714Z,71.16
2018-07-12T21:16:28.989Z,70.99
2018-07-12T21:18:57.257Z,70.80
2018-07-12T21:21:25.139Z,70.39
2018-07-12T21:23:53.415Z,71.31
2018-07-12T21:26:21.791Z,71.77
2018-07-12T21:28:49.952Z,71.82
2018-07-12T21:31:18.131Z,72.32
2018-07-12T21:33:46.402Z,72.34
2018-07-12T21:36:14.679Z,71.76
2018-07-12T21:38:42.950Z,71.31
2018-07-12T21:41:11.227Z,71.75
2018-07-12T21:43:39.497Z,72.23
2018-07-12T21:46:07.771Z,71.76
2018-07-12T21:48:36.049Z,71.65
2018-07-12T21:51:04.212Z,71.62
2018-07-12T21:53:32.506Z,72.10
2018-07-12T21:56:00.765Z,72.71
2018-07-12T21:58:29.153Z,73.36
2018-07-12T22:00:57.529Z,73.45
2018-07-12T22:03:25.792Z,73.93
2018-07-12T22:05:54.081Z,73.33
2018-07-12T22:08:28.712Z,72.65
2018-07-12T22:11:00.986Z,72.62
2018-07-12T22:13:30.121Z,73.43
2018-07-12T22:15:58.453Z,73.88
2018-07-12T22:18:26.734Z,73.18
2018-07-12T22:20:55.101Z,73.35
